Flight Track Log - Related Links

Times and Time Zones

All times are in EDT time to prevent confusion due to time zone crossing. See the N428CD flight status page for this flight to view local times or setup timezone preferences in your user account.

Time Position Orientation Groundspeed Altitude Reporting Facility
EDT Latitude Longitude Course Direction KTS MPH feet Rate Location/Type
Thu 06:55:06 PM 43.9403 -92.4139 104° East 134 154 4,100  Level Minneapolis Center
Thu 06:56:08 PM 43.9300 -92.3636 106° East 137 158 5,100 968 Climbing Minneapolis Center
Thu 06:57:10 PM 43.9194 -92.3064 104° East 143 165 6,100 871 Climbing Minneapolis Center
Thu 06:58:12 PM 43.9089 -92.2492 104° East 154 177 6,900 823 Climbing Minneapolis Center
Thu 06:59:00 PM 43.8083 -92.0495 103° East  Level FlightAware Approximate
Thu 06:59:14 PM 43.8933 -92.1842 108° East 166 191 7,800  Level Minneapolis Center
Thu 07:00:00 PM 43.7952 -91.9736 104° East  Level FlightAware Approximate
Thu 07:00:19 PM 43.8767 -92.1136 108° East 179 206 8,700  Level Minneapolis Center
Thu 07:01:21 PM 43.8606 -92.0461 108° East 185 213 9,500 871 Climbing Minneapolis Center
Thu 07:02:23 PM 43.8433 -91.9681 107° East 197 227 10,500 919 Climbing Minneapolis Center
Thu 07:03:25 PM 43.8275 -91.8964 107° East 198 228 11,400 919 Climbing Minneapolis Center
Thu 07:04:27 PM 43.8103 -91.8186 107° East 196 226 12,400 823 Climbing Minneapolis Center
Thu 07:05:29 PM 43.7950 -91.7469 106° East 197 227 13,100 726 Climbing Minneapolis Center
Thu 07:06:31 PM 43.7800 -91.6794 107° East 198 228 13,900 871 Climbing Minneapolis Center
Thu 07:07:33 PM 43.7633 -91.6086 108° East 196 226 14,900 960 Climbing Minneapolis Center
Thu 07:08:36 PM 43.7444 -91.5214 107° East 197 227 15,900 960 Climbing Minneapolis Center
Thu 07:09:38 PM 43.7289 -91.4500 107° East 196 226 16,900 581 Climbing Minneapolis Center
Thu 07:10:40 PM 43.7106 -91.3717 108° East 207 238 17,100 48 Climbing Minneapolis Center
Thu 07:11:42 PM 43.6875 -91.2675 107° East 240 276 17,000  Descending Minneapolis Center
Thu 07:12:44 PM 43.6694 -91.1853 107° East 235 270 17,100  Climbing Minneapolis Center
Thu 07:13:46 PM 43.6503 -91.0931 106° East 238 274 17,000 -48 Descending Minneapolis Center
Thu 07:14:48 PM 43.6300 -91.0042 107° East 235 270 17,000  Level Minneapolis Center
Thu 07:15:50 PM 43.6103 -90.9172 107° East 229 264 17,000  Level Minneapolis Center
Thu 07:16:52 PM 43.5897 -90.8283 108° East 233 268 17,000  Level Minneapolis Center
Thu 07:17:54 PM 43.5700 -90.7394 107° East 233 268 17,000  Level Minneapolis Center
Thu 07:18:56 PM 43.5494 -90.6492 107° East 237 273 17,000  Level Minneapolis Center
Thu 07:19:58 PM 43.5286 -90.5619 108° East 232 267 17,000  Level Minneapolis Center
Thu 07:21:00 PM 43.5097 -90.4803 108° East 233 268 17,000  Level Minneapolis Center
Thu 07:22:02 PM 43.4894 -90.3925 108° East 231 266 17,000  Level Minneapolis Center
Thu 07:23:04 PM 43.4692 -90.3044 108° East 231 266 17,000  Level Minneapolis Center
Thu 07:24:07 PM 43.4483 -90.2156 108° East 234 269 17,000  Level Minneapolis Center
Thu 07:25:09 PM 43.4275 -90.1278 108° East 233 268 17,000  Level Minneapolis Center
Thu 07:26:11 PM 43.4069 -90.0386 108° East 234 269 17,000  Level Minneapolis Center
Thu 07:27:13 PM 43.3853 -89.9503 109° East 234 269 17,000  Level Minneapolis Center
Thu 07:27:59 PM 43.3697 -89.8878 109° East 232 267 17,000  Level Chicago Center
Thu 07:29:02 PM 43.3492 -89.8042 109° East 232 267 17,000  Level Chicago Center
Thu 07:30:04 PM 43.3286 -89.7186 108° East 235 270 17,000  Level Chicago Center
Thu 07:31:06 PM 43.3089 -89.6342 108° East 233 268 17,000  Level Chicago Center
Thu 07:32:08 PM 43.2839 -89.5339 109° East 236 272 17,000  Level Chicago Center
Thu 07:33:10 PM 43.2633 -89.4489 108° East 235 270 17,000  Level Chicago Center
Thu 07:34:12 PM 43.2428 -89.3633 108° East 236 272 17,000  Level Chicago Center
Thu 07:35:14 PM 43.2219 -89.2797 109° East 234 269 17,000  Level Chicago Center
Thu 07:36:16 PM 43.2014 -89.1953 108° East 234 269 17,000  Level Chicago Center
Thu 07:37:18 PM 43.1775 -89.0964 108° East 235 270 17,000  Level Chicago Center
Thu 07:38:20 PM 43.1569 -89.0122 108° East 234 269 17,000  Level Chicago Center
Thu 07:39:22 PM 43.1336 -88.9314 112° Southeast 230 265 17,000  Level Chicago Center
Thu 07:40:25 PM 43.1306 -88.8467 93° East 224 258 17,000  Level Chicago Center
Thu 07:41:27 PM 43.1347 -88.7622 86° East 223 257 17,000  Level Chicago Center
Thu 07:42:29 PM 43.1378 -88.6650 88° East 222 255 17,000  Level Chicago Center
Thu 07:43:31 PM 43.1375 -88.5819 90° East 222 255 17,000  Level Chicago Center
Thu 07:44:33 PM 43.1136 -88.5008 112° Southeast 230 265 17,000  Level Chicago Center
Thu 07:45:35 PM 43.0892 -88.4186 112° Southeast 234 269 17,000  Level Chicago Center
Thu 07:46:37 PM 43.0661 -88.3350 111° Southeast 235 270 17,000  Level Chicago Center
Thu 07:47:39 PM 43.0394 -88.2392 111° Southeast 231 266 17,000  Level Chicago Center
Thu 07:48:42 PM 43.0161 -88.1592 112° Southeast 228 262 17,000  Level Chicago Center
Thu 07:49:44 PM 42.9925 -88.0767 111° Southeast 233 268 17,000  Level Chicago Center
Thu 07:50:46 PM 42.9694 -87.9958 111° Southeast 230 265 17,000  Level Chicago Center
Thu 07:51:48 PM 42.9461 -87.9150 111° Southeast 229 264 17,000  Level Chicago Center
Thu 07:52:50 PM 42.9186 -87.8200 112° Southeast 231 266 17,000  Level Chicago Center
Thu 07:53:52 PM 42.8944 -87.7378 112° Southeast 234 269 17,000  Level Chicago Center
Thu 07:54:54 PM 42.8708 -87.6553 111° Southeast 233 268 17,000  Level Chicago Center
Thu 07:55:56 PM 42.8475 -87.5725 111° Southeast 233 268 17,000  Level Chicago Center
Thu 07:56:58 PM 42.8222 -87.4886 112° Southeast 239 275 17,000  Level Chicago Center
Thu 07:58:00 PM 42.7933 -87.3933 112° Southeast 234 269 17,000  Level Chicago Center
Thu 07:59:02 PM 42.7711 -87.3131 111° Southeast 230 265 17,000  Level Chicago Center
Thu 08:00:04 PM 42.7467 -87.2306 112° Southeast 235 270 17,000  Level Chicago Center
Thu 08:01:06 PM 42.7211 -87.1469 113° Southeast 238 274 17,000  Level Chicago Center
Thu 08:02:08 PM 42.6972 -87.0661 112° Southeast 234 269 17,000  Level Chicago Center
Thu 08:03:11 PM 42.6722 -86.9825 112° Southeast 238 274 17,000  Level Chicago Center
Thu 08:04:13 PM 42.6439 -86.8836 111° Southeast 234 269 17,000  Level Chicago Center
Thu 08:05:15 PM 42.6178 -86.8014 113° Southeast 237 273 17,000  Level Chicago Center
Thu 08:06:17 PM 42.5939 -86.7186 111° Southeast 238 274 17,000  Level Chicago Center
Thu 08:07:19 PM 42.5686 -86.6364 113° Southeast 238 274 17,000 -484 Level Chicago Center
Thu 08:08:21 PM 42.5414 -86.5500 113° Southeast 247 284 16,000 -1,113 Descending Chicago Center
Thu 08:09:23 PM 42.5092 -86.4450 113° Southeast 253 291 14,700 -1,113 Descending Chicago Center
Thu 08:10:25 PM 42.4839 -86.3611 112° Southeast 244 281 13,700 -1,065 Descending Chicago Center
Thu 08:11:27 PM 42.4608 -86.2842 112° Southeast 226 260 12,500 -1,161 Descending Chicago Center
Thu 08:12:29 PM 42.4381 -86.2086 112° Southeast 219 252 11,300 -677 Descending Chicago Center
Thu 08:13:31 PM 42.4156 -86.1361 113° Southeast 212 244 11,100 -97 Descending Chicago Center
Thu 08:14:33 PM 42.3947 -86.0669 112° Southeast 200 230 11,100  Level Chicago Center
Thu 08:15:35 PM 42.3692 -85.9886 114° Southeast 195 224 11,100 -624 Level Chicago Center
Thu 08:16:38 PM 42.3481 -85.9178 112° Southeast 201 231 9,800 -1,344 Descending Chicago Center
Thu 08:17:40 PM 42.3253 -85.8456 113° Southeast 207 238 8,300 -1,452 Descending Chicago Center
Thu 08:18:42 PM 42.3044 -85.7778 113° Southeast 201 231 6,800 -1,065 Descending Chicago Center
Thu 08:19:44 PM 42.2850 -85.7139 112° Southeast 191 220 6,100 -339 Descending Chicago Center
Thu 08:20:46 PM 42.2503 -85.6703 137° Southeast 172 198 6,100 -435 Level Chicago Center
Thu 08:21:48 PM 42.2053 -85.6564 167° South 166 191 5,200 -968 Descending Chicago Center
Thu 08:22:50 PM 42.1606 -85.6422 167° South 167 192 4,100 -1,016 Descending Chicago Center
Thu 08:23:52 PM 42.1575 -85.5767 94° East 151 174 3,100 -1,113 Descending Chicago Center
Thu 08:24:54 PM 42.1797 -85.5394 51° Northeast 158 182 1,800 -919 Descending Chicago Center
Thu 08:25:56 PM 42.2106 -85.5464 351° North 128 147 1,200 -581 Descending Chicago Center
Thu 08:27:00 PM 42.2333 -85.5500 340° North  Level FlightAware Approximate

Login

Don't have an account? Register now (free) for customized features, flight alerts, and more!